WEATHER DATA

TODAY
Time Temp. Dewp. Hum. Wind dir Wind speed Wind gust Bar.
00:03 13 12.4 96 281 1.9 2.5 1012.9
00:25 13 12.4 96 288 1.7 2.8 1013
00:30 13 12.4 96 289 1.7 2.5 1012.9
00:45 13.1 12.3 95 288 1.9 2.8 1012.9
00:56 13 12.2 95 283 2.2 2.8 1012.9
01:06 12.9 12.1 95 320 2.5 4.2 1013
01:24 12.8 11.9 94 302 2.2 3.3 1012.9
01:34 12.8 11.9 94 308 2.2 3.6 1012.9
01:45 12.8 12 95 325 2.2 3.3 1012.9
01:56 12.7 11.9 95 339 2.5 4.4 1012.9
02:06 12.7 11.9 95 329 2.5 4.2 1013
02:16 12.7 11.9 95 333 2.2 3.9 1013
02:25 12.7 11.9 95 310 1.9 3.6 1013
02:36 12.7 11.9 95 345 2.2 3.1 1013.1
02:47 12.6 11.8 95 342 1.7 2.5 1013
02:57 12.6 11.8 95 343 1.7 3.3 1013
03:16 12.5 11.6 94 341 1.7 3.1 1012.9
03:27 12.4 11.5 94 351 1.9 2.8 1013
03:37 12.3 11.4 94 333 1.7 3.1 1013
03:46 12.3 11.4 94 337 1.7 2.8 1012.9
03:57 12.3 11.5 95 325 1.9 3.6 1012.9
04:07 12.3 11.5 95 302 1.9 2.8 1012.8
04:17 12.3 11.4 94 339 1.7 2.8 1012.8
04:27 12.2 11.3 94 343 1.9 2.8 1012.9
04:37 12.2 11.3 94 339 1.9 3.1 1012.8
04:47 12.1 11 93 343 1.9 3.6 1012.7
04:57 12.1 11 93 335 1.9 2.8 1012.7
05:08 12 10.9 93 347 2.2 3.9 1012.7
05:18 11.9 10.6 92 340 2.2 3.9 1012.6
05:26 11.9 10.8 93 333 1.9 3.3 1012.6
05:37 11.9 10.8 93 304 1.9 3.3 1012.5
05:48 11.8 10.5 92 342 2.2 4.2 1012.6
05:58 11.8 10.5 92 294 1.9 2.8 1012.7
06:07 11.8 10.5 92 311 1.9 3.1 1012.7
06:18 11.8 10.5 92 317 1.9 2.8 1012.7
06:28 11.7 10.4 92 331 1.9 3.1 1012.8
06:38 11.6 10.3 92 325 1.9 3.3 1012.8
06:48 11.6 10.3 92 315 1.9 3.1 1012.9
06:59 11.6 10.3 92 342 2.5 3.6 1013
07:08 11.6 10.5 93 295 1.9 3.1 1013
07:18 11.6 10.3 92 354 2.5 3.3 1013
07:28 11.5 10.2 92 353 2.5 4.4 1013.1
07:39 11.5 10.1 91 349 2.5 4.4 1013.2
07:48 11.4 10.1 92 347 2.2 3.6 1013.2
07:58 11.4 10.1 92 346 2.2 3.1 1013.3
08:09 11.5 10.2 92 339 2.2 3.3 1013.3
08:19 11.5 10.1 91 341 3.1 3.9 1013.4
08:28 11.5 10.2 92 345 2.8 3.6 1013.4
08:39 11.5 10.2 92 343 2.8 4.2 1013.4
08:49 11.5 10.1 91 340 2.8 3.9 1013.4
08:59 11.6 10.3 92 341 1.9 3.1 1013.5
09:09 11.7 10.3 91 343 2.2 3.6 1013.6
09:19 11.7 10.3 91 349 1.1 2.2 1013.6
09:29 11.8 10.4 91 339 1.4 2.8 1013.7
09:39 11.9 10.5 91 342 1.4 2.5 1013.8
09:50 11.9 10.3 90 345 1.4 3.1 1013.8
09:59 11.9 10.1 89 294 1.1 2.5 1013.8
10:09 12 10.2 89 244 1.7 2.8 1013.8
10:19 12.1 10.3 89 257 3.1 5.3 1013.8
10:30 12.1 10.2 88 244 3.1 5.8 1013.8
10:39 12.1 10 87 254 2.5 3.9 1013.8
10:49 12.2 10.3 88 290 1.7 3.1 1013.9
11:00 12.3 10.2 87 309 2.8 4.7 1014
11:10 12.4 10.5 88 250 3.6 6.1 1013.9
11:19 12.6 10.7 88 258 5 8.9 1014
11:30 12.7 10.4 86 265 3.6 8.9 1014
11:40 12.8 10.5 86 316 5.3 10 1014
11:50 13 10.7 86 270 5 8.6 1013.9
12:00 13 10.7 86 258 5.6 10.8 1014
12:10 13 10.5 85 264 5 10 1014
12:20 13.2 11.1 87 273 4.7 9.4 1014
12:30 13.3 11.2 87 283 4.4 7.2 1014
12:40 13.3 11.2 87 258 4.2 6.7 1014
12:51 13.4 11.3 87 254 4.7 8.1 1014
13:00 13.5 11.2 86 259 5.3 9.4 1014.1
13:10 13.6 11.3 86 283 4.4 10 1014.1
13:19 13.6 11.5 87 263 5 7.8 1014.3
13:31 13.6 11.5 87 253 4.4 7.2 1014.3
13:40 13.6 11.5 87 283 3.6 6.7 1014.3
13:50 13.6 11.5 87 274 4.2 9.2 1014.3
13:59 13.7 11.8 88 270 4.4 7.2 1014.1
14:09 13.7 11.8 88 254 4.2 6.4 1014.1
14:20 13.9 11.9 88 266 5.6 9.4 1014
14:30 14 12 88 266 5 8.6 1014.1
14:38 14 12 88 290 4.7 8.6 1014.3
14:50 14 12.2 89 292 3.9 6.7 1014.3
15:00 14 12.6 91 273 2.8 5 1014.3
15:10 13.9 12.6 92 355 2.2 3.6 1014.3
15:20 13.8 12.7 93 8 1.9 3.1 1014.3
15:31 13.7 12.8 94 356 2.2 3.6 1014.3
15:41 13.7 12.8 94 11 2.8 5 1014.3
15:50 13.6 12.7 94 8 3.1 5 1014.1
16:00 13.5 12.6 94 4 3.1 4.4 1014.3
16:11 13.4 12.5 94 4 2.8 4.2 1014.3
16:21 13.3 12.4 94 4 3.1 5 1014.4
16:30 13.3 12.5 95 356 2.5 4.2 1014.3
16:41 13.3 12.5 95 345 2.2 4.2 1014.3
16:51 13.3 12.5 95 353 2.2 4.4 1014.3
17:01 13.2 12.4 95 357 2.8 4.4 1014.3
17:11 13.2 12.6 96 357 2.8 4.7 1014.3
17:19 13.2 12.6 96 354 2.5 5 1014.3
17:31 13.2 12.6 96 355 2.8 4.4 1014.3
17:41 13.2 12.6 96 353 2.2 3.3 1014.1
17:51 13.2 12.6 96 357 2.2 3.3 1014.1
18:02 13.2 12.6 96 331 1.7 3.1 1014.3
18:12 13.2 12.6 96 325 1.4 2.8 1014.1
18:19 13.2 12.6 96 334 1.7 3.3 1014.1
18:22 13.2 12.6 96 347 2.5 4.2 1014.1
18:52 13.1 12.5 96 358 2.8 5.6 1014.3
19:01 13 12.4 96 358 2.8 4.7 1014.3
19:10 13 12.4 96 354 2.5 4.4 1014.3
19:21 13 12.5 97 356 1.9 3.9 1014.3
19:52 13 12.5 97 6 2.2 3.9 1014.4
20:02 13 12.5 97 11 1.9 3.6 1014.5
20:12 12.9 12.4 97 110 1.1 3.1 1014.6
20:23 12.8 12.2 96 51 1.1 2.5 1014.7
20:33 12.7 12.2 97 65 0.8 1.9 1014.8
20:43 12.6 12.1 97 57 0.8 2.2 1014.9
20:52 12.5 12 97 47 1.1 2.8 1015
21:03 12.5 12 97 90 0.8 1.9 1015.1
21:13 12.4 11.9 97 151 1.1 2.5 1015.1
21:23 12.4 11.9 97 169 1.1 2.2 1015.1
21:33 12.3 11.8 97 159 1.4 3.1 1015.2
21:43 12.3 11.8 97 159 1.1 1.9 1015.2
21:53 12.2 11.6 96 192 0.8 1.7 1015.2
22:03 12.1 11.6 97 192 0.8 1.7 1015.3
22:14 12.1 11.6 97 220 0.6 1.4 1015.3
22:22 12.1 11.6 97 227 0.8 1.4 1015.2
22:32 12 11.5 97 270 0.8 1.9 1015.2

DAY STATISTIC

2021-09-18
TEMPERATURE
AVERAGE
12.6
HIGH
14.0
14:30
LOW
11.4
07:48
PRESSURE
AVERAGE
1013.8
HIGH
1015.3
22:03
LOW
1012.5
05:37
DEWPOINT
AVERAGE
11.5
HIGH
12.8
15:31
LOW
10.0
10:39
HUMIDITY
AVERAGE
93
HIGH
97
19:21
LOW
85
12:10
WIND SPEED
AVERAGE
2.5
HIGH
5.6
12:00
WIND GUST
AVERAGE
4.3
HIGH
10.8
12:00
WIND DIRECTION
PREVAILING
N
41.9%
N
41.9
NE
3.1
E
1.6
SE
0.8
S
3.9
SW
3.1
W
24.8
NW
20.9
TEMPERATURE (°C)
LOW
11.4
HIGH
14.0
AVERAGE
12.6
PRESSURE (hpa)
LOW
1012.5
HIGH
1015.3
AVERAGE
1013.8
DEVICE